sensor_id;sensor_type;location;lat;lon;timestamp;P1;durP1;ratioP1;P2;durP2;ratioP2
70150;SDS011;57517;43.562;19.540;2023-02-22T00:00:50;23.45;;;17.52;;
70150;SDS011;57517;43.562;19.540;2023-02-22T00:03:26;23.85;;;17.60;;
70150;SDS011;57517;43.562;19.540;2023-02-22T00:05:57;21.25;;;15.23;;
70150;SDS011;57517;43.562;19.540;2023-02-22T00:08:27;18.80;;;13.48;;
70150;SDS011;57517;43.562;19.540;2023-02-22T00:10:57;18.35;;;13.57;;
70150;SDS011;57517;43.562;19.540;2023-02-22T00:13:24;17.92;;;13.02;;
70150;SDS011;57517;43.562;19.540;2023-02-22T00:15:53;20.42;;;14.95;;
70150;SDS011;57517;43.562;19.540;2023-02-22T00:18:20;21.48;;;14.15;;
70150;SDS011;57517;43.562;19.540;2023-02-22T00:20:46;19.55;;;14.77;;
70150;SDS011;57517;43.562;19.540;2023-02-22T00:23:16;21.25;;;15.77;;
70150;SDS011;57517;43.562;19.540;2023-02-22T00:25:43;29.83;;;18.38;;
70150;SDS011;57517;43.562;19.540;2023-02-22T00:28:10;32.00;;;21.15;;
70150;SDS011;57517;43.562;19.540;2023-02-22T00:30:36;35.38;;;25.83;;
70150;SDS011;57517;43.562;19.540;2023-02-22T00:33:02;39.72;;;25.60;;
70150;SDS011;57517;43.562;19.540;2023-02-22T00:35:30;37.95;;;24.58;;
70150;SDS011;57517;43.562;19.540;2023-02-22T00:37:59;31.63;;;22.80;;
70150;SDS011;57517;43.562;19.540;2023-02-22T00:40:29;24.85;;;18.20;;
70150;SDS011;57517;43.562;19.540;2023-02-22T00:42:59;22.98;;;16.63;;
70150;SDS011;57517;43.562;19.540;2023-02-22T00:45:26;24.08;;;16.95;;
70150;SDS011;57517;43.562;19.540;2023-02-22T00:47:53;21.35;;;15.00;;
70150;SDS011;57517;43.562;19.540;2023-02-22T00:50:20;19.77;;;13.73;;
70150;SDS011;57517;43.562;19.540;2023-02-22T00:52:47;20.52;;;14.65;;
70150;SDS011;57517;43.562;19.540;2023-02-22T00:55:21;23.27;;;15.10;;
70150;SDS011;57517;43.562;19.540;2023-02-22T00:57:49;26.55;;;18.95;;
70150;SDS011;57517;43.562;19.540;2023-02-22T01:03:17;23.90;;;16.58;;
70150;SDS011;57517;43.562;19.540;2023-02-22T01:05:44;20.67;;;15.23;;
70150;SDS011;57517;43.562;19.540;2023-02-22T01:08:12;17.25;;;12.70;;
70150;SDS011;57517;43.562;19.540;2023-02-22T01:10:39;17.40;;;13.13;;
70150;SDS011;57517;43.562;19.540;2023-02-22T01:13:06;21.83;;;13.75;;
70150;SDS011;57517;43.562;19.540;2023-02-22T01:15:33;15.77;;;11.00;;
70150;SDS011;57517;43.562;19.540;2023-02-22T01:18:01;17.73;;;11.52;;
70150;SDS011;57517;43.562;19.540;2023-02-22T01:20:26;14.18;;;9.68;;
70150;SDS011;57517;43.562;19.540;2023-02-22T01:22:54;19.65;;;14.43;;
70150;SDS011;57517;43.562;19.540;2023-02-22T01:25:25;24.17;;;18.23;;
70150;SDS011;57517;43.562;19.540;2023-02-22T01:27:53;21.58;;;15.90;;
70150;SDS011;57517;43.562;19.540;2023-02-22T01:30:20;19.85;;;13.85;;
70150;SDS011;57517;43.562;19.540;2023-02-22T01:32:48;19.80;;;14.90;;
70150;SDS011;57517;43.562;19.540;2023-02-22T01:35:16;21.50;;;13.70;;
70150;SDS011;57517;43.562;19.540;2023-02-22T01:37:43;23.65;;;14.95;;
70150;SDS011;57517;43.562;19.540;2023-02-22T01:40:13;31.77;;;22.55;;
70150;SDS011;57517;43.562;19.540;2023-02-22T01:42:45;27.23;;;19.05;;
70150;SDS011;57517;43.562;19.540;2023-02-22T01:47:57;34.08;;;21.80;;
70150;SDS011;57517;43.562;19.540;2023-02-22T01:50:28;38.17;;;24.17;;
70150;SDS011;57517;43.562;19.540;2023-02-22T01:52:56;36.85;;;24.55;;
70150;SDS011;57517;43.562;19.540;2023-02-22T01:55:23;27.80;;;20.00;;
70150;SDS011;57517;43.562;19.540;2023-02-22T01:57:49;23.75;;;16.48;;
70150;SDS011;57517;43.562;19.540;2023-02-22T02:00:16;19.95;;;15.00;;
70150;SDS011;57517;43.562;19.540;2023-02-22T02:02:46;21.30;;;14.18;;
70150;SDS011;57517;43.562;19.540;2023-02-22T02:05:17;19.75;;;12.90;;
70150;SDS011;57517;43.562;19.540;2023-02-22T02:07:43;17.50;;;12.00;;
70150;SDS011;57517;43.562;19.540;2023-02-22T02:10:11;18.33;;;12.27;;
70150;SDS011;57517;43.562;19.540;2023-02-22T02:12:40;18.90;;;11.35;;
70150;SDS011;57517;43.562;19.540;2023-02-22T02:17:45;15.13;;;11.10;;
70150;SDS011;57517;43.562;19.540;2023-02-22T02:20:15;16.90;;;11.05;;
70150;SDS011;57517;43.562;19.540;2023-02-22T02:30:53;15.82;;;10.88;;
70150;SDS011;57517;43.562;19.540;2023-02-22T02:33:43;17.70;;;11.52;;
70150;SDS011;57517;43.562;19.540;2023-02-22T02:38:56;16.83;;;12.35;;
70150;SDS011;57517;43.562;19.540;2023-02-22T02:41:42;16.08;;;11.02;;
70150;SDS011;57517;43.562;19.540;2023-02-22T02:44:26;17.75;;;12.98;;
70150;SDS011;57517;43.562;19.540;2023-02-22T02:46:59;17.50;;;11.00;;
70150;SDS011;57517;43.562;19.540;2023-02-22T02:49:43;17.33;;;12.07;;
70150;SDS011;57517;43.562;19.540;2023-02-22T02:52:14;16.00;;;12.20;;
70150;SDS011;57517;43.562;19.540;2023-02-22T02:54:42;15.40;;;11.48;;
70150;SDS011;57517;43.562;19.540;2023-02-22T02:57:10;18.05;;;12.45;;
70150;SDS011;57517;43.562;19.540;2023-02-22T02:59:36;19.08;;;11.68;;
70150;SDS011;57517;43.562;19.540;2023-02-22T03:18:30;21.23;;;14.40;;
70150;SDS011;57517;43.562;19.540;2023-02-22T03:26:20;21.55;;;16.23;;
70150;SDS011;57517;43.562;19.540;2023-02-22T03:29:10;17.10;;;12.32;;
70150;SDS011;57517;43.562;19.540;2023-02-22T03:31:41;15.82;;;11.60;;
70150;SDS011;57517;43.562;19.540;2023-02-22T03:34:22;26.33;;;17.88;;
70150;SDS011;57517;43.562;19.540;2023-02-22T03:37:02;22.27;;;16.23;;
70150;SDS011;57517;43.562;19.540;2023-02-22T03:39:38;20.42;;;14.02;;
70150;SDS011;57517;43.562;19.540;2023-02-22T03:42:07;20.63;;;12.77;;
70150;SDS011;57517;43.562;19.540;2023-02-22T03:44:39;13.20;;;10.02;;
70150;SDS011;57517;43.562;19.540;2023-02-22T03:47:11;14.27;;;9.15;;
70150;SDS011;57517;43.562;19.540;2023-02-22T03:49:48;14.77;;;10.82;;
70150;SDS011;57517;43.562;19.540;2023-02-22T03:52:18;14.45;;;10.23;;
70150;SDS011;57517;43.562;19.540;2023-02-22T03:54:48;14.23;;;9.27;;
70150;SDS011;57517;43.562;19.540;2023-02-22T03:57:32;17.23;;;10.35;;
70150;SDS011;57517;43.562;19.540;2023-02-22T04:00:01;14.43;;;10.10;;
70150;SDS011;57517;43.562;19.540;2023-02-22T04:02:30;15.15;;;10.88;;
70150;SDS011;57517;43.562;19.540;2023-02-22T04:04:56;15.93;;;10.13;;
70150;SDS011;57517;43.562;19.540;2023-02-22T04:07:22;15.35;;;10.60;;
70150;SDS011;57517;43.562;19.540;2023-02-22T04:09:47;14.88;;;11.15;;
70150;SDS011;57517;43.562;19.540;2023-02-22T04:12:13;16.60;;;12.05;;
70150;SDS011;57517;43.562;19.540;2023-02-22T04:14:39;16.33;;;12.05;;
70150;SDS011;57517;43.562;19.540;2023-02-22T04:17:04;15.45;;;11.13;;
70150;SDS011;57517;43.562;19.540;2023-02-22T04:19:30;17.35;;;12.13;;
70150;SDS011;57517;43.562;19.540;2023-02-22T04:21:56;17.63;;;11.55;;
70150;SDS011;57517;43.562;19.540;2023-02-22T04:24:22;15.38;;;11.18;;
70150;SDS011;57517;43.562;19.540;2023-02-22T04:26:47;15.30;;;11.38;;
70150;SDS011;57517;43.562;19.540;2023-02-22T04:29:14;16.40;;;11.88;;
70150;SDS011;57517;43.562;19.540;2023-02-22T04:31:39;16.83;;;11.52;;
70150;SDS011;57517;43.562;19.540;2023-02-22T04:34:05;19.17;;;12.75;;
70150;SDS011;57517;43.562;19.540;2023-02-22T04:36:31;24.67;;;18.63;;
70150;SDS011;57517;43.562;19.540;2023-02-22T04:38:57;21.40;;;13.60;;
70150;SDS011;57517;43.562;19.540;2023-02-22T04:41:23;15.13;;;11.80;;
70150;SDS011;57517;43.562;19.540;2023-02-22T04:43:49;14.73;;;11.38;;
70150;SDS011;57517;43.562;19.540;2023-02-22T04:46:15;16.30;;;10.70;;
70150;SDS011;57517;43.562;19.540;2023-02-22T04:48:41;17.88;;;12.90;;
70150;SDS011;57517;43.562;19.540;2023-02-22T04:51:07;16.55;;;13.27;;
70150;SDS011;57517;43.562;19.540;2023-02-22T04:53:34;19.92;;;14.27;;
70150;SDS011;57517;43.562;19.540;2023-02-22T04:56:00;20.67;;;15.70;;
70150;SDS011;57517;43.562;19.540;2023-02-22T04:58:26;21.23;;;16.00;;
70150;SDS011;57517;43.562;19.540;2023-02-22T05:00:52;20.70;;;13.35;;
70150;SDS011;57517;43.562;19.540;2023-02-22T05:03:18;18.38;;;13.48;;
70150;SDS011;57517;43.562;19.540;2023-02-22T05:05:44;19.20;;;13.77;;
70150;SDS011;57517;43.562;19.540;2023-02-22T05:08:09;16.40;;;14.02;;
70150;SDS011;57517;43.562;19.540;2023-02-22T05:10:35;24.08;;;19.42;;
70150;SDS011;57517;43.562;19.540;2023-02-22T05:13:01;28.52;;;20.42;;
70150;SDS011;57517;43.562;19.540;2023-02-22T05:15:27;29.58;;;22.73;;
70150;SDS011;57517;43.562;19.540;2023-02-22T05:17:53;26.80;;;21.58;;
70150;SDS011;57517;43.562;19.540;2023-02-22T05:22:54;23.60;;;15.43;;
70150;SDS011;57517;43.562;19.540;2023-02-22T05:25:21;18.70;;;13.90;;
70150;SDS011;57517;43.562;19.540;2023-02-22T05:27:48;17.30;;;12.45;;
70150;SDS011;57517;43.562;19.540;2023-02-22T05:30:24;19.77;;;13.57;;
70150;SDS011;57517;43.562;19.540;2023-02-22T05:32:54;24.05;;;16.45;;
70150;SDS011;57517;43.562;19.540;2023-02-22T05:35:20;25.83;;;18.77;;
70150;SDS011;57517;43.562;19.540;2023-02-22T05:37:46;27.58;;;17.02;;
70150;SDS011;57517;43.562;19.540;2023-02-22T05:40:14;21.67;;;18.15;;
70150;SDS011;57517;43.562;19.540;2023-02-22T05:42:42;27.85;;;20.58;;
70150;SDS011;57517;43.562;19.540;2023-02-22T05:45:08;35.60;;;25.27;;
70150;SDS011;57517;43.562;19.540;2023-02-22T05:47:36;64.93;;;42.72;;
70150;SDS011;57517;43.562;19.540;2023-02-22T05:50:01;47.42;;;29.33;;
70150;SDS011;57517;43.562;19.540;2023-02-22T05:52:27;26.83;;;18.80;;
70150;SDS011;57517;43.562;19.540;2023-02-22T05:54:53;26.08;;;19.85;;
70150;SDS011;57517;43.562;19.540;2023-02-22T05:57:19;29.15;;;21.60;;
70150;SDS011;57517;43.562;19.540;2023-02-22T05:59:44;26.85;;;21.27;;
70150;SDS011;57517;43.562;19.540;2023-02-22T06:02:10;26.88;;;21.90;;
70150;SDS011;57517;43.562;19.540;2023-02-22T06:04:36;28.50;;;20.48;;
70150;SDS011;57517;43.562;19.540;2023-02-22T06:07:01;27.80;;;20.20;;
70150;SDS011;57517;43.562;19.540;2023-02-22T06:09:27;22.15;;;16.58;;
70150;SDS011;57517;43.562;19.540;2023-02-22T06:11:53;21.60;;;15.20;;
70150;SDS011;57517;43.562;19.540;2023-02-22T06:14:19;30.02;;;23.50;;
70150;SDS011;57517;43.562;19.540;2023-02-22T06:16:50;69.30;;;48.78;;
70150;SDS011;57517;43.562;19.540;2023-02-22T06:19:17;56.30;;;39.95;;
70150;SDS011;57517;43.562;19.540;2023-02-22T06:21:52;37.13;;;25.50;;
70150;SDS011;57517;43.562;19.540;2023-02-22T06:24:20;23.55;;;19.02;;
70150;SDS011;57517;43.562;19.540;2023-02-22T06:26:53;26.70;;;18.98;;
70150;SDS011;57517;43.562;19.540;2023-02-22T06:29:21;26.75;;;18.85;;
70150;SDS011;57517;43.562;19.540;2023-02-22T06:31:48;25.00;;;18.67;;
70150;SDS011;57517;43.562;19.540;2023-02-22T06:34:14;39.80;;;23.27;;
70150;SDS011;57517;43.562;19.540;2023-02-22T06:36:40;25.77;;;20.52;;
70150;SDS011;57517;43.562;19.540;2023-02-22T06:39:06;30.73;;;23.67;;
70150;SDS011;57517;43.562;19.540;2023-02-22T06:41:38;35.05;;;25.45;;
70150;SDS011;57517;43.562;19.540;2023-02-22T06:44:07;32.75;;;23.80;;
70150;SDS011;57517;43.562;19.540;2023-02-22T06:46:34;29.60;;;22.40;;
70150;SDS011;57517;43.562;19.540;2023-02-22T06:49:00;25.77;;;20.50;;
70150;SDS011;57517;43.562;19.540;2023-02-22T06:51:26;96.65;;;69.15;;
70150;SDS011;57517;43.562;19.540;2023-02-22T06:53:53;100.43;;;72.90;;
70150;SDS011;57517;43.562;19.540;2023-02-22T06:56:19;103.82;;;77.32;;
70150;SDS011;57517;43.562;19.540;2023-02-22T06:58:45;88.82;;;61.30;;
70150;SDS011;57517;43.562;19.540;2023-02-22T07:01:11;73.80;;;53.50;;
70150;SDS011;57517;43.562;19.540;2023-02-22T07:03:37;61.70;;;43.70;;
70150;SDS011;57517;43.562;19.540;2023-02-22T07:06:03;72.20;;;55.92;;
70150;SDS011;57517;43.562;19.540;2023-02-22T07:08:30;94.35;;;74.05;;
70150;SDS011;57517;43.562;19.540;2023-02-22T07:10:56;134.77;;;104.43;;
70150;SDS011;57517;43.562;19.540;2023-02-22T07:13:22;210.15;;;171.13;;
70150;SDS011;57517;43.562;19.540;2023-02-22T07:15:47;163.00;;;112.30;;
70150;SDS011;57517;43.562;19.540;2023-02-22T07:18:13;104.85;;;76.47;;
70150;SDS011;57517;43.562;19.540;2023-02-22T07:20:40;72.63;;;52.13;;
70150;SDS011;57517;43.562;19.540;2023-02-22T07:23:06;67.50;;;50.08;;
70150;SDS011;57517;43.562;19.540;2023-02-22T07:25:31;57.75;;;45.95;;
70150;SDS011;57517;43.562;19.540;2023-02-22T07:27:57;58.45;;;42.83;;
70150;SDS011;57517;43.562;19.540;2023-02-22T07:30:30;101.45;;;76.15;;
70150;SDS011;57517;43.562;19.540;2023-02-22T07:32:59;65.10;;;50.15;;
70150;SDS011;57517;43.562;19.540;2023-02-22T07:35:27;61.95;;;46.67;;
70150;SDS011;57517;43.562;19.540;2023-02-22T07:37:54;49.20;;;41.70;;
70150;SDS011;57517;43.562;19.540;2023-02-22T07:40:20;51.35;;;40.83;;
70150;SDS011;57517;43.562;19.540;2023-02-22T07:45:34;56.03;;;44.28;;
70150;SDS011;57517;43.562;19.540;2023-02-22T07:48:00;52.53;;;44.92;;
70150;SDS011;57517;43.562;19.540;2023-02-22T07:50:28;47.25;;;42.22;;
70150;SDS011;57517;43.562;19.540;2023-02-22T07:52:55;55.97;;;44.60;;
70150;SDS011;57517;43.562;19.540;2023-02-22T07:55:24;60.95;;;45.38;;
70150;SDS011;57517;43.562;19.540;2023-02-22T07:57:53;52.03;;;41.78;;
70150;SDS011;57517;43.562;19.540;2023-02-22T08:00:28;46.17;;;39.22;;
70150;SDS011;57517;43.562;19.540;2023-02-22T08:02:58;46.03;;;38.15;;
70150;SDS011;57517;43.562;19.540;2023-02-22T08:05:29;49.08;;;41.03;;
70150;SDS011;57517;43.562;19.540;2023-02-22T08:07:56;45.97;;;38.67;;
70150;SDS011;57517;43.562;19.540;2023-02-22T08:10:22;44.92;;;38.35;;
70150;SDS011;57517;43.562;19.540;2023-02-22T08:12:49;36.15;;;31.02;;
70150;SDS011;57517;43.562;19.540;2023-02-22T08:15:17;31.13;;;27.90;;
70150;SDS011;57517;43.562;19.540;2023-02-22T08:17:45;43.97;;;35.92;;
70150;SDS011;57517;43.562;19.540;2023-02-22T08:20:10;39.38;;;35.25;;
70150;SDS011;57517;43.562;19.540;2023-02-22T08:22:36;40.58;;;36.28;;
70150;SDS011;57517;43.562;19.540;2023-02-22T08:25:02;34.33;;;28.80;;
70150;SDS011;57517;43.562;19.540;2023-02-22T08:27:30;31.23;;;28.02;;
70150;SDS011;57517;43.562;19.540;2023-02-22T08:29:57;34.72;;;31.02;;
70150;SDS011;57517;43.562;19.540;2023-02-22T08:32:23;38.00;;;33.38;;
70150;SDS011;57517;43.562;19.540;2023-02-22T08:34:49;38.97;;;34.78;;
70150;SDS011;57517;43.562;19.540;2023-02-22T08:37:16;41.47;;;34.35;;
70150;SDS011;57517;43.562;19.540;2023-02-22T08:39:42;43.15;;;37.17;;
70150;SDS011;57517;43.562;19.540;2023-02-22T08:42:08;42.90;;;38.03;;
70150;SDS011;57517;43.562;19.540;2023-02-22T08:44:35;45.05;;;40.33;;
70150;SDS011;57517;43.562;19.540;2023-02-22T08:47:02;45.13;;;40.38;;
70150;SDS011;57517;43.562;19.540;2023-02-22T08:49:28;48.95;;;43.95;;
70150;SDS011;57517;43.562;19.540;2023-02-22T08:51:54;38.97;;;34.88;;
70150;SDS011;57517;43.562;19.540;2023-02-22T08:54:19;27.67;;;24.85;;
70150;SDS011;57517;43.562;19.540;2023-02-22T08:56:46;25.35;;;22.60;;
70150;SDS011;57517;43.562;19.540;2023-02-22T08:59:13;27.95;;;25.08;;
70150;SDS011;57517;43.562;19.540;2023-02-22T09:01:39;24.38;;;21.88;;
70150;SDS011;57517;43.562;19.540;2023-02-22T09:04:04;17.58;;;15.73;;
70150;SDS011;57517;43.562;19.540;2023-02-22T09:06:30;22.33;;;19.92;;
70150;SDS011;57517;43.562;19.540;2023-02-22T09:08:56;25.75;;;22.85;;
70150;SDS011;57517;43.562;19.540;2023-02-22T09:11:22;27.30;;;24.42;;
70150;SDS011;57517;43.562;19.540;2023-02-22T09:13:47;26.75;;;23.85;;
70150;SDS011;57517;43.562;19.540;2023-02-22T09:16:13;30.02;;;26.73;;
70150;SDS011;57517;43.562;19.540;2023-02-22T09:18:39;30.90;;;27.52;;
70150;SDS011;57517;43.562;19.540;2023-02-22T09:21:05;30.52;;;27.30;;
70150;SDS011;57517;43.562;19.540;2023-02-22T09:23:31;35.97;;;29.50;;
70150;SDS011;57517;43.562;19.540;2023-02-22T09:25:57;36.50;;;32.40;;
70150;SDS011;57517;43.562;19.540;2023-02-22T09:28:26;36.33;;;29.50;;
70150;SDS011;57517;43.562;19.540;2023-02-22T09:30:52;36.20;;;31.85;;
70150;SDS011;57517;43.562;19.540;2023-02-22T09:33:18;36.90;;;30.38;;
70150;SDS011;57517;43.562;19.540;2023-02-22T09:35:46;26.50;;;22.10;;
70150;SDS011;57517;43.562;19.540;2023-02-22T09:38:20;26.10;;;19.98;;
70150;SDS011;57517;43.562;19.540;2023-02-22T09:40:50;29.15;;;19.70;;
70150;SDS011;57517;43.562;19.540;2023-02-22T09:43:29;21.88;;;17.00;;
70150;SDS011;57517;43.562;19.540;2023-02-22T09:49:08;21.55;;;17.95;;
70150;SDS011;57517;43.562;19.540;2023-02-22T09:54:18;18.63;;;15.60;;
70150;SDS011;57517;43.562;19.540;2023-02-22T09:56:54;21.33;;;17.60;;
70150;SDS011;57517;43.562;19.540;2023-02-22T09:59:26;17.63;;;15.82;;
70150;SDS011;57517;43.562;19.540;2023-02-22T10:02:10;20.38;;;15.75;;
70150;SDS011;57517;43.562;19.540;2023-02-22T10:05:01;20.83;;;18.10;;
70150;SDS011;57517;43.562;19.540;2023-02-22T10:07:36;19.55;;;17.15;;
70150;SDS011;57517;43.562;19.540;2023-02-22T10:10:13;19.90;;;17.90;;
70150;SDS011;57517;43.562;19.540;2023-02-22T10:12:47;18.15;;;16.05;;
70150;SDS011;57517;43.562;19.540;2023-02-22T10:15:21;20.35;;;18.23;;
70150;SDS011;57517;43.562;19.540;2023-02-22T10:18:02;22.00;;;19.70;;
70150;SDS011;57517;43.562;19.540;2023-02-22T10:25:54;20.08;;;17.55;;
70150;SDS011;57517;43.562;19.540;2023-02-22T10:28:31;18.13;;;16.23;;
70150;SDS011;57517;43.562;19.540;2023-02-22T10:31:04;21.10;;;18.55;;
70150;SDS011;57517;43.562;19.540;2023-02-22T10:33:34;21.83;;;16.05;;
70150;SDS011;57517;43.562;19.540;2023-02-22T10:36:01;19.30;;;16.05;;
70150;SDS011;57517;43.562;19.540;2023-02-22T10:38:31;15.10;;;13.30;;
70150;SDS011;57517;43.562;19.540;2023-02-22T10:41:00;15.65;;;13.73;;
70150;SDS011;57517;43.562;19.540;2023-02-22T10:43:47;19.02;;;16.35;;
70150;SDS011;57517;43.562;19.540;2023-02-22T10:46:14;18.75;;;15.57;;
70150;SDS011;57517;43.562;19.540;2023-02-22T10:48:43;23.15;;;18.55;;
70150;SDS011;57517;43.562;19.540;2023-02-22T10:51:11;21.40;;;17.42;;
70150;SDS011;57517;43.562;19.540;2023-02-22T10:53:37;15.40;;;13.85;;
70150;SDS011;57517;43.562;19.540;2023-02-22T10:56:36;20.77;;;15.27;;
70150;SDS011;57517;43.562;19.540;2023-02-22T10:58:56;22.33;;;18.92;;
70150;SDS011;57517;43.562;19.540;2023-02-22T11:03:58;19.77;;;15.52;;
70150;SDS011;57517;43.562;19.540;2023-02-22T11:09:16;38.58;;;30.50;;
70150;SDS011;57517;43.562;19.540;2023-02-22T11:11:46;52.85;;;39.92;;
70150;SDS011;57517;43.562;19.540;2023-02-22T11:14:23;40.15;;;29.55;;
70150;SDS011;57517;43.562;19.540;2023-02-22T11:16:52;32.10;;;24.90;;
70150;SDS011;57517;43.562;19.540;2023-02-22T11:19:25;24.33;;;16.92;;
70150;SDS011;57517;43.562;19.540;2023-02-22T11:24:33;19.88;;;13.43;;
70150;SDS011;57517;43.562;19.540;2023-02-22T11:30:18;24.85;;;19.02;;
70150;SDS011;57517;43.562;19.540;2023-02-22T11:32:56;23.70;;;15.15;;
70150;SDS011;57517;43.562;19.540;2023-02-22T11:37:53;19.67;;;15.25;;
70150;SDS011;57517;43.562;19.540;2023-02-22T11:40:36;20.20;;;14.93;;
70150;SDS011;57517;43.562;19.540;2023-02-22T11:43:17;20.58;;;15.82;;
70150;SDS011;57517;43.562;19.540;2023-02-22T11:48:31;19.20;;;13.70;;
70150;SDS011;57517;43.562;19.540;2023-02-22T11:56:38;25.27;;;15.93;;
70150;SDS011;57517;43.562;19.540;2023-02-22T12:02:27;15.82;;;12.63;;
70150;SDS011;57517;43.562;19.540;2023-02-22T12:07:55;18.92;;;12.90;;
70150;SDS011;57517;43.562;19.540;2023-02-22T12:17:06;20.45;;;14.23;;
70150;SDS011;57517;43.562;19.540;2023-02-22T12:19:38;26.55;;;17.27;;
70150;SDS011;57517;43.562;19.540;2023-02-22T12:22:26;21.00;;;16.58;;
70150;SDS011;57517;43.562;19.540;2023-02-22T12:25:01;17.65;;;13.63;;
70150;SDS011;57517;43.562;19.540;2023-02-22T12:30:40;15.82;;;12.07;;
70150;SDS011;57517;43.562;19.540;2023-02-22T12:33:11;21.48;;;16.77;;
70150;SDS011;57517;43.562;19.540;2023-02-22T12:35:41;20.10;;;15.57;;
70150;SDS011;57517;43.562;19.540;2023-02-22T12:38:22;28.92;;;14.15;;
70150;SDS011;57517;43.562;19.540;2023-02-22T12:43:38;14.27;;;10.50;;
70150;SDS011;57517;43.562;19.540;2023-02-22T12:46:22;16.65;;;11.48;;
70150;SDS011;57517;43.562;19.540;2023-02-22T12:54:17;20.85;;;15.20;;
70150;SDS011;57517;43.562;19.540;2023-02-22T13:00:06;21.55;;;15.48;;
70150;SDS011;57517;43.562;19.540;2023-02-22T13:02:44;16.67;;;13.38;;
70150;SDS011;57517;43.562;19.540;2023-02-22T13:05:54;21.08;;;13.73;;
70150;SDS011;57517;43.562;19.540;2023-02-22T13:08:57;15.27;;;12.03;;
70150;SDS011;57517;43.562;19.540;2023-02-22T13:11:46;16.27;;;12.13;;
70150;SDS011;57517;43.562;19.540;2023-02-22T13:14:42;15.88;;;11.55;;
70150;SDS011;57517;43.562;19.540;2023-02-22T13:17:31;15.35;;;11.43;;
70150;SDS011;57517;43.562;19.540;2023-02-22T13:20:10;19.02;;;12.90;;
70150;SDS011;57517;43.562;19.540;2023-02-22T13:25:27;22.05;;;16.40;;
70150;SDS011;57517;43.562;19.540;2023-02-22T13:30:43;44.97;;;34.50;;
70150;SDS011;57517;43.562;19.540;2023-02-22T13:36:21;25.02;;;18.48;;
70150;SDS011;57517;43.562;19.540;2023-02-22T13:42:16;23.20;;;14.75;;
70150;SDS011;57517;43.562;19.540;2023-02-22T13:52:54;18.48;;;13.80;;
70150;SDS011;57517;43.562;19.540;2023-02-22T13:55:23;28.67;;;18.20;;
70150;SDS011;57517;43.562;19.540;2023-02-22T14:00:57;28.30;;;22.08;;
70150;SDS011;57517;43.562;19.540;2023-02-22T14:03:35;30.48;;;21.55;;
70150;SDS011;57517;43.562;19.540;2023-02-22T14:06:08;23.35;;;17.42;;
70150;SDS011;57517;43.562;19.540;2023-02-22T14:08:55;22.48;;;16.02;;
70150;SDS011;57517;43.562;19.540;2023-02-22T14:16:28;22.77;;;15.38;;
70150;SDS011;57517;43.562;19.540;2023-02-22T14:19:01;21.88;;;15.32;;
70150;SDS011;57517;43.562;19.540;2023-02-22T14:21:33;22.50;;;16.67;;
70150;SDS011;57517;43.562;19.540;2023-02-22T14:24:07;29.30;;;19.83;;
70150;SDS011;57517;43.562;19.540;2023-02-22T14:26:37;42.65;;;28.75;;
70150;SDS011;57517;43.562;19.540;2023-02-22T14:34:19;31.20;;;23.17;;
70150;SDS011;57517;43.562;19.540;2023-02-22T14:37:06;36.80;;;26.25;;
70150;SDS011;57517;43.562;19.540;2023-02-22T14:39:45;45.95;;;32.17;;
70150;SDS011;57517;43.562;19.540;2023-02-22T14:47:15;56.70;;;38.60;;
70150;SDS011;57517;43.562;19.540;2023-02-22T14:49:45;62.25;;;43.22;;
70150;SDS011;57517;43.562;19.540;2023-02-22T14:52:22;58.97;;;40.97;;
70150;SDS011;57517;43.562;19.540;2023-02-22T14:54:55;58.85;;;39.00;;
70150;SDS011;57517;43.562;19.540;2023-02-22T15:00:21;56.95;;;41.25;;
70150;SDS011;57517;43.562;19.540;2023-02-22T15:02:55;56.38;;;39.83;;
70150;SDS011;57517;43.562;19.540;2023-02-22T15:05:24;67.55;;;41.00;;
70150;SDS011;57517;43.562;19.540;2023-02-22T15:07:56;56.58;;;43.80;;
70150;SDS011;57517;43.562;19.540;2023-02-22T15:12:56;59.25;;;46.35;;
70150;SDS011;57517;43.562;19.540;2023-02-22T15:15:40;47.20;;;35.33;;
70150;SDS011;57517;43.562;19.540;2023-02-22T15:20:44;61.10;;;38.28;;
70150;SDS011;57517;43.562;19.540;2023-02-22T15:23:13;70.95;;;47.90;;
70150;SDS011;57517;43.562;19.540;2023-02-22T15:25:40;92.57;;;62.83;;
70150;SDS011;57517;43.562;19.540;2023-02-22T15:28:13;119.55;;;78.82;;
70150;SDS011;57517;43.562;19.540;2023-02-22T15:30:39;118.05;;;83.93;;
70150;SDS011;57517;43.562;19.540;2023-02-22T15:33:13;117.90;;;83.07;;
70150;SDS011;57517;43.562;19.540;2023-02-22T15:35:52;123.65;;;86.85;;
70150;SDS011;57517;43.562;19.540;2023-02-22T15:38:20;122.00;;;84.50;;
70150;SDS011;57517;43.562;19.540;2023-02-22T15:41:03;94.55;;;62.22;;
70150;SDS011;57517;43.562;19.540;2023-02-22T15:43:32;117.55;;;79.43;;
70150;SDS011;57517;43.562;19.540;2023-02-22T15:45:59;62.60;;;44.72;;
70150;SDS011;57517;43.562;19.540;2023-02-22T15:48:26;80.90;;;55.10;;
70150;SDS011;57517;43.562;19.540;2023-02-22T15:51:04;84.18;;;53.78;;
70150;SDS011;57517;43.562;19.540;2023-02-22T15:53:40;65.78;;;42.35;;
70150;SDS011;57517;43.562;19.540;2023-02-22T15:56:25;93.07;;;55.92;;
70150;SDS011;57517;43.562;19.540;2023-02-22T15:59:00;121.25;;;87.05;;
70150;SDS011;57517;43.562;19.540;2023-02-22T16:01:29;119.15;;;82.68;;
70150;SDS011;57517;43.562;19.540;2023-02-22T16:04:02;120.93;;;80.15;;
70150;SDS011;57517;43.562;19.540;2023-02-22T16:06:32;106.13;;;71.03;;
70150;SDS011;57517;43.562;19.540;2023-02-22T16:09:13;80.65;;;56.90;;
70150;SDS011;57517;43.562;19.540;2023-02-22T16:11:45;89.85;;;57.92;;
70150;SDS011;57517;43.562;19.540;2023-02-22T16:14:28;49.63;;;35.53;;
70150;SDS011;57517;43.562;19.540;2023-02-22T16:17:10;46.20;;;34.15;;
70150;SDS011;57517;43.562;19.540;2023-02-22T16:19:52;77.13;;;52.40;;
70150;SDS011;57517;43.562;19.540;2023-02-22T16:27:55;64.53;;;44.22;;
70150;SDS011;57517;43.562;19.540;2023-02-22T16:32:51;107.40;;;64.50;;
70150;SDS011;57517;43.562;19.540;2023-02-22T16:35:23;120.80;;;81.75;;
70150;SDS011;57517;43.562;19.540;2023-02-22T16:38:02;63.63;;;44.78;;
70150;SDS011;57517;43.562;19.540;2023-02-22T16:40:34;89.82;;;70.20;;
70150;SDS011;57517;43.562;19.540;2023-02-22T16:43:05;76.05;;;57.15;;
70150;SDS011;57517;43.562;19.540;2023-02-22T16:45:33;78.03;;;55.17;;
70150;SDS011;57517;43.562;19.540;2023-02-22T16:48:00;81.53;;;56.67;;
70150;SDS011;57517;43.562;19.540;2023-02-22T16:50:29;76.35;;;52.42;;
70150;SDS011;57517;43.562;19.540;2023-02-22T16:52:54;57.10;;;43.00;;
70150;SDS011;57517;43.562;19.540;2023-02-22T16:55:22;56.30;;;41.72;;
70150;SDS011;57517;43.562;19.540;2023-02-22T16:57:48;40.65;;;32.63;;
70150;SDS011;57517;43.562;19.540;2023-02-22T17:00:18;49.88;;;33.38;;
70150;SDS011;57517;43.562;19.540;2023-02-22T17:02:55;42.95;;;31.85;;
70150;SDS011;57517;43.562;19.540;2023-02-22T17:05:22;39.35;;;30.60;;
70150;SDS011;57517;43.562;19.540;2023-02-22T17:07:48;48.08;;;32.08;;